Private Wetterstation Wechselburg
Wetterdaten: Woche 21.02.11 - 27.02.11 (KW8)
Datum Zeit Temp. +2m Bodentemp. Temp.+5cm Temp. Wind Windchill X Diff Temp. Feuchte +2m Feuchte +5cm Sonnenschein Luftdruck Regen Wind Richtung Sonnenschein UV Taupunkt Windchill Windben
21.02.2011 00:00 -9,7 C 3,6 C -10,4 C -10,7 C -12,8 C 0,0 C 79 % 82 % 0 % 1020,0 hPa 0,0 l/m 0,8 km/h (0 Bft) SW 0,00 h 0,0 UV-I -12,6 C -12,8 C 1,4 km/h (1 Bft)
21.02.2011 01:00 -9,8 C 3,6 C -10,5 C -10,9 C -13,3 C 0,0 C 80 % 83 % 0 % 1020,0 hPa 0,0 l/m 0,1 km/h (0 Bft) N 0,00 h 0,0 UV-I -12,6 C -13,3 C 0,2 km/h (0 Bft)
21.02.2011 02:00 -9,9 C 3,6 C -10,5 C -11,0 C -13,2 C 0,0 C 79 % 84 % 0 % 1020,2 hPa 0,0 l/m 0,3 km/h (0 Bft) N 0,00 h 0,0 UV-I -12,8 C -13,2 C 0,4 km/h (0 Bft)
21.02.2011 03:00 -10,1 C 3,6 C -10,8 C -11,3 C -13,7 C 0,0 C 80 % 84 % 0 % 1020,2 hPa 0,0 l/m 0,0 km/h (0 Bft) N 0,00 h 0,0 UV-I -13,0 C -13,7 C 0,0 km/h (0 Bft)
21.02.2011 04:00 -10,4 C 3,6 C -11,0 C -11,5 C -13,8 C 0,0 C 81 % 84 % 0 % 1019,7 hPa 0,0 l/m 0,0 km/h (0 Bft) N 0,00 h 0,0 UV-I -13,1 C -13,8 C 0,0 km/h (0 Bft)
21.02.2011 05:00 -10,5 C 3,6 C -11,2 C -11,6 C -13,6 C 0,0 C 81 % 85 % 0 % 1020,3 hPa 0,0 l/m 0,0 km/h (0 Bft) N 0,00 h 0,0 UV-I -13,1 C -13,6 C 0,0 km/h (0 Bft)
21.02.2011 06:00 -10,1 C 3,5 C -10,5 C -11,1 C -12,9 C 0,0 C 82 % 85 % 0 % 1020,3 hPa 0,0 l/m 0,2 km/h (0 Bft) SW 0,00 h 0,0 UV-I -12,7 C -12,9 C 1,0 km/h (0 Bft)
21.02.2011 07:00 -9,8 C 3,5 C -9,9 C -10,8 C -12,8 C 0,0 C 80 % 84 % 0 % 1020,8 hPa 0,0 l/m 2,5 km/h (1 Bft) W-SW 0,00 h 0,0 UV-I -12,5 C -12,8 C 3,7 km/h (1 Bft)
21.02.2011 08:00 -9,1 C 3,4 C -9,1 C -10,5 C -13,2 C 0,0 C 79 % 82 % 0 % 1020,9 hPa 0,0 l/m 0,3 km/h (0 Bft) N 0,00 h 0,0 UV-I -12,1 C -13,2 C 0,3 km/h (0 Bft)
21.02.2011 09:00 -8,2 C 3,4 C -8,5 C -9,9 C -13,2 C 0,0 C 77 % 80 % 0 % 1020,8 hPa 0,0 l/m 0,0 km/h (0 Bft) N 0,00 h 0,1 UV-I -11,6 C -13,2 C 0,0 km/h (0 Bft)
21.02.2011 10:00 -6,9 C 3,3 C -7,6 C -9,0 C -13,2 C 0,0 C 72 % 76 % 0 % 1020,6 hPa 0,0 l/m 0,0 km/h (0 Bft) N 0,00 h 0,2 UV-I -11,2 C -13,2 C 0,0 km/h (0 Bft)
21.02.2011 11:00 -6,7 C 3,3 C -7,1 C -8,9 C -13,2 C 0,0 C 71 % 75 % 0 % 1020,6 hPa 0,0 l/m 0,0 km/h (0 Bft) N 0,00 h 0,4 UV-I -11,2 C -13,2 C 0,0 km/h (0 Bft)
21.02.2011 12:00 -6,6 C 3,3 C -7,1 C -8,8 C -13,2 C 0,0 C 71 % 76 % 0 % 1020,3 hPa 0,0 l/m 0,0 km/h (0 Bft) N 0,00 h 0,5 UV-I -10,9 C -13,2 C 0,0 km/h (0 Bft)
21.02.2011 13:00 -5,9 C 3,3 C -6,3 C -8,4 C -13,2 C 0,0 C 69 % 74 % 0 % 1019,9 hPa 0,0 l/m 0,0 km/h (0 Bft) N 0,00 h 0,5 UV-I -10,6 C -13,2 C 0,0 km/h (0 Bft)
21.02.2011 14:00 -5,6 C 3,3 C -4,2 C -7,4 C -11,4 C 0,3 C 68 % 67 % 8 % 1019,4 hPa 0,0 l/m 1,7 km/h (1 Bft) W-SW 0,00 h 0,3 UV-I -10,4 C -12,1 C 2,1 km/h (1 Bft)
21.02.2011 15:00 -5,4 C 3,3 C -3,0 C -2,7 C -3,6 C 2,6 C 67 % 61 % 69 % 1019,4 hPa 0,0 l/m 8,3 km/h (2 Bft) SW 0,27 h 0,1 UV-I -10,4 C -7,0 C 10,1 km/h (2 Bft)
21.02.2011 16:00 -5,9 C 3,3 C -5,8 C -6,3 C -7,6 C 0,1 C 69 % 71 % 1 % 1019,1 hPa 0,0 l/m 7,1 km/h (2 Bft) W-SW 0,00 h 0,0 UV-I -10,7 C -11,3 C 8,4 km/h (2 Bft)
21.02.2011 17:00 -6,7 C 3,3 C -6,8 C -7,2 C -8,1 C 0,0 C 71 % 73 % 0 % 1018,6 hPa 0,0 l/m 2,2 km/h (1 Bft) S-SW 0,00 h 0,0 UV-I -11,1 C -8,3 C 3,1 km/h (1 Bft)
21.02.2011 18:00 -7,5 C 3,3 C -7,7 C -7,6 C -7,8 C 0,0 C 73 % 76 % 0 % 1018,6 hPa 0,0 l/m 0,0 km/h (0 Bft) N 0,00 h 0,0 UV-I -11,6 C -7,8 C 0,0 km/h (0 Bft)
21.02.2011 19:00 -7,9 C 3,3 C -7,9 C -7,8 C -7,8 C 0,1 C 73 % 76 % 0 % 1018,6 hPa 0,0 l/m 0,0 km/h (0 Bft) N 0,00 h 0,0 UV-I -11,8 C -7,8 C 0,0 km/h (0 Bft)
21.02.2011 20:00 -8,4 C 3,3 C -8,6 C -7,8 C -7,8 C 0,6 C 75 % 78 % 0 % 1018,6 hPa 0,0 l/m 0,0 km/h (0 Bft) N 0,00 h 0,0 UV-I -12,1 C -7,8 C 0,0 km/h (0 Bft)
21.02.2011 21:00 -9,0 C 3,3 C -9,1 C -7,8 C -7,8 C 1,2 C 76 % 79 % 0 % 1018,8 hPa 0,0 l/m 0,0 km/h (0 Bft) N 0,00 h 0,0 UV-I -12,4 C -7,8 C 0,0 km/h (0 Bft)
21.02.2011 22:00 -9,6 C 3,2 C -9,6 C -7,8 C -7,8 C 1,8 C 77 % 80 % 0 % 1018,8 hPa 0,0 l/m 0,0 km/h (0 Bft) N 0,00 h 0,0 UV-I -12,8 C -7,8 C 0,0 km/h (0 Bft)
21.02.2011 23:00 -10,3 C 3,3 C -10,4 C -7,8 C -7,8 C 2,5 C 79 % 82 % 0 % 1018,5 hPa 0,0 l/m 0,0 km/h (0 Bft) N 0,00 h 0,0 UV-I -13,2 C -7,8 C 0,0 km/h (0 Bft)
22.02.2011 00:00 -10,7 C 3,4 C -10,8 C -7,8 C -7,8 C 2,9 C 80 % 82 % 0 % 1018,5 hPa 0,0 l/m 0,0 km/h (0 Bft) N 0,00 h 0,0 UV-I -13,5 C -7,8 C 0,0 km/h (0 Bft)
22.02.2011 01:00 -10,9 C 3,3 C -10,9 C -7,8 C -7,8 C 3,1 C 80 % 82 % 0 % 1018,1 hPa 0,0 l/m 0,0 km/h (0 Bft) N 0,00 h 0,0 UV-I -13,6 C -7,8 C 0,0 km/h (0 Bft)
22.02.2011 02:00 -11,2 C 3,3 C -11,2 C -7,8 C -7,8 C 3,4 C 80 % 83 % 0 % 1018,2 hPa 0,0 l/m 0,0 km/h (0 Bft) N 0,00 h 0,0 UV-I -13,9 C -7,8 C 0,0 km/h (0 Bft)
22.02.2011 03:00 -11,5 C 3,3 C -11,6 C -7,8 C -7,8 C 3,7 C 81 % 84 % 0 % 1017,8 hPa 0,0 l/m 0,0 km/h (0 Bft) N 0,00 h 0,0 UV-I -14,0 C -7,8 C 0,0 km/h (0 Bft)
22.02.2011 04:00 -11,7 C 3,3 C -11,7 C -7,8 C -7,8 C 3,9 C 82 % 84 % 0 % 1017,9 hPa 0,0 l/m 0,0 km/h (0 Bft) N 0,00 h 0,0 UV-I -14,1 C -7,8 C 0,0 km/h (0 Bft)
22.02.2011 05:00 -11,7 C 3,4 C -11,7 C -7,8 C -7,8 C 3,9 C 83 % 85 % 0 % 1017,8 hPa 0,0 l/m 0,0 km/h (0 Bft) N 0,00 h 0,0 UV-I -14,0 C -7,8 C 0,0 km/h (0 Bft)
22.02.2011 06:00 -11,9 C 3,4 C -12,0 C -7,8 C -7,8 C 4,1 C 84 % 85 % 0 % 1017,7 hPa 0,0 l/m 0,0 km/h (0 Bft) N 0,00 h 0,0 UV-I -14,0 C -7,8 C 0,0 km/h (0 Bft)
22.02.2011 07:00 -11,5 C 3,4 C -11,4 C -7,8 C -7,8 C 3,7 C 84 % 86 % 69 % 1017,5 hPa 0,0 l/m 0,0 km/h (0 Bft) N 0,67 h 0,0 UV-I -13,6 C -7,8 C 0,0 km/h (0 Bft)
22.02.2011 08:00 -10,7 C 3,2 C -10,8 C -7,8 C -7,8 C 2,9 C 83 % 85 % 77 % 1018,2 hPa 0,0 l/m 0,0 km/h (0 Bft) N 1,00 h 0,0 UV-I -13,0 C -7,8 C 0,0 km/h (0 Bft)
22.02.2011 09:00 -9,6 C 3,2 C -10,0 C -7,8 C -7,8 C 1,8 C 80 % 83 % 48 % 1018,2 hPa 0,0 l/m 0,0 km/h (0 Bft) N 0,00 h 0,0 UV-I -12,4 C -7,8 C 0,0 km/h (0 Bft)
22.02.2011 10:00 -8,8 C 3,1 C -9,3 C -7,8 C -7,8 C 1,0 C 77 % 81 % 26 % 1018,2 hPa 0,0 l/m 0,0 km/h (0 Bft) N 0,00 h 0,1 UV-I -12,1 C -7,8 C 0,0 km/h (0 Bft)
22.02.2011 11:00 -7,6 C 3,1 C -8,2 C -7,6 C -7,8 C 0,0 C 74 % 78 % 1 % 1018,5 hPa 0,0 l/m 0,0 km/h (0 Bft) N 0,00 h 0,2 UV-I -11,4 C -7,8 C 0,0 km/h (0 Bft)
22.02.2011 12:00 -6,8 C 3,1 C -7,2 C -7,1 C -7,8 C 0,0 C 71 % 75 % 0 % 1018,9 hPa 0,0 l/m 0,0 km/h (0 Bft) N 0,00 h 0,4 UV-I -11,2 C -7,8 C 0,0 km/h (0 Bft)
22.02.2011 13:00 -6,2 C 3,1 C -6,5 C -6,7 C -7,8 C 0,0 C 69 % 72 % 0 % 1018,9 hPa 0,0 l/m 0,0 km/h (0 Bft) N 0,00 h 0,3 UV-I -10,9 C -7,8 C 0,0 km/h (0 Bft)
22.02.2011 14:00 -5,4 C 3,1 C -3,9 C -6,2 C -7,8 C 0,0 C 68 % 66 % 0 % 1019,2 hPa 0,0 l/m 0,0 km/h (0 Bft) N 0,00 h 0,2 UV-I -10,4 C -7,8 C 0,0 km/h (0 Bft)
22.02.2011 15:00 -5,0 C 3,1 C -2,3 C -5,9 C -7,8 C 0,0 C 67 % 59 % 0 % 1019,2 hPa 0,0 l/m 0,0 km/h (0 Bft) N 0,00 h 0,1 UV-I -10,2 C -7,8 C 0,0 km/h (0 Bft)
22.02.2011 16:00 -5,3 C 3,1 C -5,2 C -6,1 C -7,8 C 0,0 C 66 % 67 % 0 % 1019,2 hPa 0,0 l/m 0,0 km/h (0 Bft) N 0,00 h 0,0 UV-I -10,6 C -7,8 C 0,0 km/h (0 Bft)
22.02.2011 17:00 -6,4 C 3,0 C -6,4 C -6,9 C -7,8 C 0,0 C 69 % 71 % 0 % 1019,2 hPa 0,0 l/m 0,0 km/h (0 Bft) N 0,00 h 0,0 UV-I -11,2 C -7,8 C 0,0 km/h (0 Bft)
22.02.2011 18:00 -7,6 C 3,1 C -8,0 C -7,6 C -7,8 C 0,0 C 71 % 74 % 0 % 1019,4 hPa 0,0 l/m 0,0 km/h (0 Bft) N 0,00 h 0,0 UV-I -11,9 C -7,8 C 0,0 km/h (0 Bft)
22.02.2011 19:00 -8,4 C 3,1 C -9,0 C -7,8 C -7,8 C 0,6 C 74 % 77 % 0 % 1022,1 hPa 0,0 l/m 0,0 km/h (0 Bft) N 0,00 h 0,0 UV-I -12,2 C -7,8 C 0,0 km/h (0 Bft)
22.02.2011 20:00 -9,2 C 3,2 C -9,9 C -7,8 C -7,8 C 1,4 C 76 % 80 % 0 % 1022,2 hPa 0,0 l/m 0,0 km/h (0 Bft) N 0,00 h 0,0 UV-I -12,5 C -7,8 C 0,0 km/h (0 Bft)
22.02.2011 21:00 -9,9 C 3,3 C -10,7 C -7,8 C -7,8 C 2,1 C 78 % 81 % 0 % 1022,3 hPa 0,0 l/m 0,0 km/h (0 Bft) N 0,00 h 0,0 UV-I -13,0 C -7,8 C 0,0 km/h (0 Bft)
22.02.2011 22:00 -10,8 C 3,3 C -11,6 C -7,8 C -7,8 C 3,0 C 78 % 82 % 0 % 1022,9 hPa 0,0 l/m 0,0 km/h (0 Bft) N 0,00 h 0,0 UV-I -13,8 C -7,8 C 0,0 km/h (0 Bft)
22.02.2011 23:00 -11,5 C 3,3 C -12,4 C -7,8 C -7,8 C 3,7 C 79 % 83 % 0 % 1024,1 hPa 0,0 l/m 0,0 km/h (0 Bft) N 0,00 h 0,0 UV-I -14,4 C -7,8 C 0,0 km/h (0 Bft)
23.02.2011 00:00 -12,1 C 3,3 C -13,0 C -7,8 C -7,8 C 4,3 C 79 % 83 % 0 % 1024,2 hPa 0,0 l/m 0,0 km/h (0 Bft) N 0,00 h 0,0 UV-I -14,9 C -7,8 C 0,0 km/h (0 Bft)
23.02.2011 01:00 -12,7 C 3,2 C -13,6 C -7,8 C -7,8 C 4,9 C 79 % 83 % 0 % 1024,2 hPa 0,0 l/m 0,0 km/h (0 Bft) N 0,00 h 0,0 UV-I -15,5 C -7,8 C 0,0 km/h (0 Bft)
23.02.2011 02:00 -13,4 C 3,2 C -14,3 C -7,8 C -7,8 C 5,6 C 79 % 83 % 0 % 1024,1 hPa 0,0 l/m 0,0 km/h (0 Bft) N 0,00 h 0,0 UV-I -16,3 C -7,8 C 0,0 km/h (0 Bft)
23.02.2011 03:00 -13,9 C 3,1 C -14,7 C -7,8 C -7,8 C 6,1 C 79 % 83 % 0 % 1024,3 hPa 0,0 l/m 0,0 km/h (0 Bft) N 0,00 h 0,1 UV-I -16,8 C -7,8 C 0,0 km/h (0 Bft)
23.02.2011 04:00 -14,3 C 3,1 C -15,1 C -7,8 C -7,8 C 6,5 C 78 % 83 % 0 % 1024,9 hPa 0,0 l/m 0,0 km/h (0 Bft) N 0,00 h 0,1 UV-I -17,3 C -7,8 C 0,0 km/h (0 Bft)
23.02.2011 05:00 -14,6 C 3,0 C -15,5 C -7,8 C -7,8 C 6,8 C 78 % 83 % 0 % 1025,3 hPa 0,0 l/m 0,0 km/h (0 Bft) N 0,00 h 0,1 UV-I -17,6 C -7,8 C 0,0 km/h (0 Bft)
23.02.2011 06:00 -15,1 C 3,0 C -15,9 C -7,8 C -7,8 C 7,3 C 78 % 83 % 0 % 1025,5 hPa 0,0 l/m 0,0 km/h (0 Bft) N 0,00 h 0,1 UV-I -18,0 C -7,8 C 0,0 km/h (0 Bft)
23.02.2011 07:00 -15,1 C 3,0 C -15,9 C -7,8 C -7,8 C 7,3 C 78 % 83 % 73 % 1025,4 hPa 0,0 l/m 0,0 km/h (0 Bft) N 0,67 h 0,1 UV-I -18,0 C -7,8 C 0,0 km/h (0 Bft)
23.02.2011 08:00 -14,1 C 2,9 C -14,5 C -7,8 C -7,8 C 6,3 C 78 % 82 % 100 % 1025,4 hPa 0,0 l/m 0,0 km/h (0 Bft) N 1,00 h 0,1 UV-I -17,1 C -7,8 C 0,0 km/h (0 Bft)
23.02.2011 09:00 -12,1 C 2,8 C -13,0 C -7,8 C -7,8 C 4,3 C 78 % 83 % 98 % 1025,4 hPa 0,0 l/m 0,0 km/h (0 Bft) N 1,00 h 0,1 UV-I -15,2 C -7,8 C 0,0 km/h (0 Bft)
23.02.2011 10:00 -9,7 C 2,8 C -10,5 C -7,8 C -7,8 C 1,9 C 77 % 82 % 50 % 1025,4 hPa 0,0 l/m 0,0 km/h (0 Bft) N 0,00 h 0,1 UV-I -13,0 C -7,8 C 0,0 km/h (0 Bft)
23.02.2011 11:00 -8,2 C 2,7 C -8,6 C -7,8 C -7,8 C 0,4 C 72 % 76 % 11 % 1025,4 hPa 0,0 l/m 0,0 km/h (0 Bft) N 0,00 h 0,2 UV-I -12,3 C -7,8 C 0,0 km/h (0 Bft)
23.02.2011 12:00 -7,1 C 2,7 C -7,6 C -7,3 C -7,8 C 0,0 C 69 % 73 % 0 % 1025,4 hPa 0,0 l/m 0,0 km/h (0 Bft) N 0,00 h 0,4 UV-I -11,8 C -7,8 C 0,0 km/h (0 Bft)
23.02.2011 13:00 -6,5 C 2,7 C -6,8 C -6,9 C -7,8 C 0,0 C 67 % 70 % 0 % 1025,4 hPa 0,0 l/m 0,0 km/h (0 Bft) N 0,00 h 0,4 UV-I -11,6 C -7,8 C 0,0 km/h (0 Bft)
23.02.2011 14:00 -5,8 C 2,8 C -4,1 C -6,5 C -7,8 C 0,0 C 65 % 62 % 0 % 1025,5 hPa 0,0 l/m 0,0 km/h (0 Bft) N 0,00 h 0,2 UV-I -11,4 C -7,8 C 0,0 km/h (0 Bft)
23.02.2011 15:00 -5,3 C 2,7 C -1,6 C -6,1 C -7,8 C 0,0 C 63 % 53 % 0 % 1026,1 hPa 0,0 l/m 0,0 km/h (0 Bft) N 0,00 h 0,1 UV-I -11,2 C -7,8 C 0,0 km/h (0 Bft)
23.02.2011 16:00 -5,4 C 2,7 C -5,2 C -6,2 C -7,8 C 0,0 C 63 % 63 % 0 % 1026,1 hPa 0,0 l/m 0,0 km/h (0 Bft) N 0,00 h 0,0 UV-I -11,3 C -7,8 C 0,0 km/h (0 Bft)
23.02.2011 17:00 -6,2 C 2,8 C -6,2 C -6,8 C -7,8 C 0,0 C 66 % 68 % 0 % 1026,1 hPa 0,0 l/m 0,0 km/h (0 Bft) N 0,00 h 0,0 UV-I -11,5 C -7,8 C 0,0 km/h (0 Bft)
23.02.2011 18:00 -7,7 C 2,8 C -8,0 C -7,7 C -7,8 C 0,1 C 71 % 73 % 0 % 1026,1 hPa 0,0 l/m 0,0 km/h (0 Bft) N 0,00 h 0,0 UV-I -12,0 C -7,8 C 0,0 km/h (0 Bft)
23.02.2011 19:00 -8,7 C 2,9 C -9,3 C -7,8 C -7,8 C 0,9 C 74 % 77 % 0 % 1026,1 hPa 0,0 l/m 0,0 km/h (0 Bft) N 0,00 h 0,0 UV-I -12,5 C -7,8 C 0,0 km/h (0 Bft)
23.02.2011 20:00 -9,6 C 3,0 C -10,3 C -7,8 C -7,8 C 1,8 C 77 % 79 % 0 % 1026,1 hPa 0,0 l/m 0,0 km/h (0 Bft) N 0,00 h 0,0 UV-I -12,9 C -7,8 C 0,0 km/h (0 Bft)
23.02.2011 21:00 -10,3 C 3,0 C -11,2 C -7,8 C -7,8 C 2,5 C 78 % 80 % 0 % 1026,1 hPa 0,0 l/m 0,0 km/h (0 Bft) N 0,00 h 0,0 UV-I -13,5 C -7,8 C 0,0 km/h (0 Bft)
23.02.2011 22:00 -11,0 C 3,0 C -11,8 C -7,8 C -7,8 C 3,2 C 79 % 82 % 0 % 1026,2 hPa 0,0 l/m 0,0 km/h (0 Bft) N 0,00 h 0,0 UV-I -13,9 C -7,8 C 0,0 km/h (0 Bft)
23.02.2011 23:00 -11,6 C 2,8 C -12,3 C -7,8 C -7,8 C 3,8 C 80 % 82 % 0 % 1026,4 hPa 0,0 l/m 0,0 km/h (0 Bft) N 0,00 h 0,0 UV-I -14,4 C -7,8 C 0,0 km/h (0 Bft)
24.02.2011 00:00 -12,2 C 1,9 C -12,9 C -7,8 C -7,8 C 4,4 C 80 % 83 % 0 % 1026,3 hPa 0,0 l/m 0,0 km/h (0 Bft) N 0,00 h 0,0 UV-I -14,9 C -7,8 C 0,0 km/h (0 Bft)
24.02.2011 01:00 -12,5 C 1,5 C -13,2 C -7,8 C -7,8 C 4,7 C 80 % 84 % 0 % 1026,2 hPa 0,0 l/m 0,0 km/h (0 Bft) N 0,00 h 0,0 UV-I -15,2 C -7,8 C 0,0 km/h (0 Bft)
24.02.2011 02:00 -12,8 C 1,2 C -13,3 C -7,8 C -7,8 C 5,0 C 80 % 84 % 0 % 1025,6 hPa 0,0 l/m 0,0 km/h (0 Bft) N 0,00 h 0,0 UV-I -15,5 C -7,8 C 0,0 km/h (0 Bft)
24.02.2011 03:00 -12,8 C 1,1 C -13,3 C -7,8 C -7,8 C 5,0 C 81 % 84 % 0 % 1025,7 hPa 0,0 l/m 0,0 km/h (0 Bft) N 0,00 h 0,0 UV-I -15,5 C -7,8 C 0,0 km/h (0 Bft)
24.02.2011 04:00 -12,7 C 1,0 C -13,1 C -7,8 C -7,8 C 4,9 C 81 % 84 % 0 % 1026,0 hPa 0,0 l/m 0,0 km/h (0 Bft) N 0,00 h 0,0 UV-I -15,3 C -7,8 C 0,0 km/h (0 Bft)
24.02.2011 05:00 -12,6 C 0,9 C -12,9 C -7,8 C -7,8 C 4,8 C 81 % 84 % 0 % 1026,0 hPa 0,0 l/m 0,0 km/h (0 Bft) N 0,00 h 0,0 UV-I -15,2 C -7,8 C 0,0 km/h (0 Bft)
24.02.2011 06:00 -12,6 C 0,8 C -12,8 C -7,8 C -7,8 C 4,8 C 81 % 84 % 0 % 1026,0 hPa 0,0 l/m 0,0 km/h (0 Bft) N 0,00 h 0,0 UV-I -15,1 C -7,8 C 0,0 km/h (0 Bft)
24.02.2011 07:00 -12,0 C 0,8 C -12,4 C -7,8 C -7,8 C 4,2 C 82 % 84 % 72 % 1025,6 hPa 0,0 l/m 0,0 km/h (0 Bft) N 0,67 h 0,0 UV-I -14,4 C -7,8 C 0,0 km/h (0 Bft)
24.02.2011 08:00 -10,0 C 0,7 C -9,8 C -7,8 C -7,8 C 2,2 C 82 % 85 % 57 % 1025,6 hPa 0,0 l/m 0,0 km/h (0 Bft) N 0,58 h 0,0 UV-I -12,4 C -7,8 C 0,0 km/h (0 Bft)
24.02.2011 09:00 -6,6 C 0,7 C -5,9 C -7,0 C -7,8 C 0,0 C 80 % 82 % 1 % 1025,8 hPa 0,0 l/m 0,0 km/h (0 Bft) N 0,00 h 0,1 UV-I -9,5 C -7,8 C 0,0 km/h (0 Bft)
24.02.2011 10:00 -3,7 C 0,5 C -2,9 C -5,0 C -7,8 C 0,0 C 74 % 75 % 0 % 1025,9 hPa 0,0 l/m 0,0 km/h (0 Bft) N 0,00 h 0,4 UV-I -7,6 C -7,8 C 0,0 km/h (0 Bft)
24.02.2011 11:00 -0,9 C 0,5 C -0,9 C -3,2 C -7,8 C 0,0 C 61 % 63 % 0 % 1026,0 hPa 0,0 l/m 0,0 km/h (0 Bft) N 0,00 h 0,6 UV-I -7,6 C -7,8 C 0,0 km/h (0 Bft)
24.02.2011 12:00 0,7 C 0,6 C 0,6 C -2,2 C -7,8 C 0,0 C 53 % 56 % 0 % 1026,0 hPa 0,7 l/m 0,0 km/h (0 Bft) N 0,00 h 0,8 UV-I -7,9 C -7,8 C 0,0 km/h (0 Bft)
24.02.2011 13:00 2,4 C 0,7 C 2,0 C -1,0 C -7,8 C 0,0 C 45 % 48 % 0 % 1025,9 hPa 0,0 l/m 0,0 km/h (0 Bft) N 0,00 h 0,8 UV-I -8,3 C -7,8 C 0,0 km/h (0 Bft)
24.02.2011 14:00 3,4 C 0,8 C 5,0 C -0,3 C -7,8 C 0,0 C 42 % 41 % 0 % 1025,7 hPa 0,7 l/m 0,0 km/h (0 Bft) N 0,00 h 0,5 UV-I -8,2 C -7,8 C 0,0 km/h (0 Bft)
24.02.2011 15:00 3,2 C 0,8 C 5,7 C -0,2 C -7,2 C 0,0 C 50 % 44 % 0 % 1025,7 hPa 0,7 l/m 0,0 km/h (0 Bft) N 0,00 h 0,2 UV-I -6,3 C -7,2 C 0,0 km/h (0 Bft)
24.02.2011 16:00 2,2 C 1,0 C 2,2 C 1,6 C 0,2 C 0,0 C 55 % 58 % 1 % 1025,7 hPa 0,0 l/m 0,2 km/h (0 Bft) SW 0,00 h 0,0 UV-I -5,8 C 0,2 C 0,3 km/h (0 Bft)
24.02.2011 17:00 1,1 C 1,0 C 0,9 C 1,5 C 1,5 C 0,4 C 62 % 66 % 3 % 1025,7 hPa 0,0 l/m 0,9 km/h (0 Bft) W-SW 0,00 h 0,0 UV-I -5,2 C 1,5 C 0,5 km/h (0 Bft)
24.02.2011 18:00 0,1 C 1,2 C -0,2 C 1,4 C 1,4 C 1,3 C 67 % 70 % 0 % 1025,7 hPa 0,0 l/m 0,0 km/h (0 Bft) N 0,00 h 0,0 UV-I -5,3 C 1,4 C 0,0 km/h (0 Bft)
24.02.2011 19:00 -0,5 C 1,2 C -1,2 C -1,2 C -2,7 C 0,0 C 70 % 75 % 0 % 1025,7 hPa 0,0 l/m 0,0 km/h (0 Bft) N 0,00 h 0,0 UV-I -5,4 C -2,7 C 0,0 km/h (0 Bft)
24.02.2011 20:00 -0,8 C 1,3 C -1,3 C -1,5 C -2,7 C 0,0 C 72 % 76 % 0 % 1025,7 hPa 0,0 l/m 0,0 km/h (0 Bft) N 0,00 h 0,0 UV-I -5,3 C -2,7 C 0,0 km/h (0 Bft)
24.02.2011 21:00 -1,4 C 1,3 C -1,9 C -2,0 C -3,2 C 0,0 C 73 % 78 % 0 % 1025,7 hPa 0,0 l/m 0,1 km/h (0 Bft) N 0,00 h 0,0 UV-I -5,5 C -3,2 C 0,2 km/h (0 Bft)
24.02.2011 22:00 -2,0 C 1,5 C -2,7 C -2,7 C -4,1 C 0,0 C 75 % 80 % 0 % 1025,7 hPa 0,0 l/m 0,1 km/h (0 Bft) N 0,00 h 0,0 UV-I -5,9 C -4,1 C 0,0 km/h (0 Bft)
24.02.2011 23:00 -2,9 C 1,7 C -3,6 C -3,7 C -5,2 C 0,0 C 77 % 82 % 0 % 1025,7 hPa 0,0 l/m 0,0 km/h (0 Bft) N 0,00 h 0,0 UV-I -6,3 C -5,2 C 0,0 km/h (0 Bft)
25.02.2011 00:00 -3,6 C 1,8 C -4,4 C -4,4 C -6,1 C 0,0 C 79 % 83 % 0 % 1026,0 hPa 0,0 l/m 0,0 km/h (0 Bft) N 0,00 h 0,0 UV-I -6,7 C -6,1 C 0,0 km/h (0 Bft)
25.02.2011 01:00 -4,3 C 1,9 C -5,1 C -5,1 C -6,9 C 0,0 C 80 % 84 % 0 % 1028,9 hPa 0,0 l/m 0,0 km/h (0 Bft) N 0,00 h 0,0 UV-I -7,2 C -6,9 C 0,0 km/h (0 Bft)
25.02.2011 02:00 -4,9 C 1,9 C -5,6 C -5,8 C -7,7 C 0,0 C 80 % 84 % 0 % 1028,6 hPa 0,0 l/m 0,0 km/h (0 Bft) N 0,00 h 0,0 UV-I -7,8 C -7,7 C 0,0 km/h (0 Bft)
25.02.2011 03:00 -5,6 C 1,9 C -6,1 C -6,7 C -8,7 C 0,0 C 80 % 84 % 0 % 1028,2 hPa 0,0 l/m 0,0 km/h (0 Bft) N 0,00 h 0,0 UV-I -8,5 C -8,7 C 0,0 km/h (0 Bft)
25.02.2011 04:00 -6,2 C 1,9 C -6,9 C -7,3 C -9,4 C 0,0 C 81 % 85 % 0 % 1028,6 hPa 0,0 l/m 0,0 km/h (0 Bft) N 0,00 h 0,0 UV-I -8,9 C -9,4 C 0,0 km/h (0 Bft)
25.02.2011 05:00 -6,8 C 1,9 C -6,9 C -7,8 C -9,9 C 0,0 C 81 % 85 % 0 % 1029,0 hPa 0,0 l/m 0,0 km/h (0 Bft) N 0,00 h 0,0 UV-I -9,5 C -9,9 C 0,0 km/h (0 Bft)
25.02.2011 06:00 -7,2 C 1,9 C -6,9 C -8,2 C -10,3 C 0,0 C 82 % 85 % 0 % 1028,5 hPa 0,0 l/m 0,0 km/h (0 Bft) N 0,00 h 0,0 UV-I -9,7 C -10,3 C 0,0 km/h (0 Bft)
25.02.2011 07:00 -7,6 C 1,9 C -6,9 C -8,6 C -10,6 C 0,0 C 82 % 85 % 0 % 1028,5 hPa 0,0 l/m 0,0 km/h (0 Bft) N 0,00 h 0,0 UV-I -10,2 C -10,6 C 0,0 km/h (0 Bft)
25.02.2011 08:00 -6,5 C 1,9 C -6,5 C -6,9 C -7,7 C 0,0 C 82 % 84 % 0 % 1028,5 hPa 0,0 l/m 0,0 km/h (0 Bft) N 0,00 h 0,0 UV-I -9,1 C -7,7 C 0,0 km/h (0 Bft)
25.02.2011 09:00 -4,6 C 1,9 C -5,2 C -4,7 C -4,9 C 0,0 C 78 % 81 % 1 % 1028,5 hPa 0,0 l/m 0,0 km/h (0 Bft) N 0,00 h 0,1 UV-I -7,8 C -4,9 C 0,0 km/h (0 Bft)
25.02.2011 10:00 -2,4 C 1,9 C -3,2 C 0,6 C 0,6 C 3,0 C 71 % 76 % 75 % 1028,5 hPa 0,0 l/m 0,5 km/h (0 Bft) NO 0,48 h 0,1 UV-I -6,8 C 0,6 C 0,9 km/h (0 Bft)
25.02.2011 11:00 -0,5 C 1,6 C -1,1 C 5,3 C 5,3 C 5,8 C 64 % 66 % 100 % 1029,0 hPa 0,0 l/m 2,5 km/h (1 Bft) W-SW 1,00 h 0,5 UV-I -6,6 C 5,3 C 3,6 km/h (1 Bft)
25.02.2011 12:00 1,1 C 1,5 C 0,6 C 9,4 C 9,4 C 8,4 C 53 % 56 % 100 % 1029,8 hPa 0,0 l/m 4,1 km/h (1 Bft) SW 1,00 h 0,7 UV-I -7,4 C 9,3 C 5,3 km/h (1 Bft)
25.02.2011 13:00 1,9 C 1,5 C 1,4 C 8,7 C 8,6 C 6,8 C 49 % 52 % 100 % 1029,3 hPa 0,0 l/m 6,3 km/h (2 Bft) W-SW 1,00 h 0,6 UV-I -7,8 C 7,8 C 7,7 km/h (2 Bft)
25.02.2011 14:00 2,2 C 1,5 C 3,3 C 9,0 C 8,9 C 6,8 C 46 % 45 % 100 % 1029,2 hPa 0,0 l/m 6,7 km/h (2 Bft) W-SW 1,00 h 0,4 UV-I -8,3 C 8,1 C 9,2 km/h (2 Bft)
25.02.2011 15:00 2,4 C 1,5 C 4,9 C 7,9 C 7,6 C 5,5 C 45 % 40 % 100 % 1029,2 hPa 0,0 l/m 7,5 km/h (2 Bft) W-SW 1,00 h 0,2 UV-I -8,4 C 6,4 C 9,0 km/h (2 Bft)
25.02.2011 16:00 2,2 C 1,5 C 1,9 C 7,7 C 7,7 C 5,6 C 44 % 46 % 98 % 1029,2 hPa 0,0 l/m 3,8 km/h (1 Bft) SW 1,00 h 0,0 UV-I -8,8 C 7,7 C 3,9 km/h (1 Bft)
25.02.2011 17:00 0,5 C 1,5 C -0,0 C 0,2 C -0,6 C 0,2 C 50 % 53 % 4 % 1029,2 hPa 0,0 l/m 0,8 km/h (0 Bft) S-SW 0,08 h 0,0 UV-I -8,8 C -0,6 C 0,9 km/h (0 Bft)
25.02.2011 18:00 -1,1 C 1,5 C -2,0 C -2,1 C -4,2 C 0,0 C 56 % 62 % 0 % 1028,9 hPa 0,0 l/m 0,1 km/h (0 Bft) N 0,00 h 0,0 UV-I -8,7 C -4,2 C 0,2 km/h (0 Bft)
25.02.2011 19:00 -2,2 C 1,5 C -3,2 C -3,1 C -5,0 C 0,0 C 63 % 70 % 0 % 1028,9 hPa 0,0 l/m 0,3 km/h (0 Bft) W-SW 0,00 h 0,0 UV-I -8,2 C -5,0 C 0,5 km/h (0 Bft)
25.02.2011 20:00 -3,0 C 1,6 C -4,0 C -3,9 C -5,7 C 0,0 C 68 % 74 % 0 % 1028,9 hPa 0,0 l/m 0,4 km/h (0 Bft) N 0,00 h 0,0 UV-I -8,0 C -5,7 C 0,3 km/h (0 Bft)
25.02.2011 21:00 -3,7 C 1,7 C -4,7 C -4,6 C -6,5 C 0,0 C 72 % 77 % 0 % 1028,7 hPa 0,0 l/m 0,3 km/h (0 Bft) N 0,00 h 0,0 UV-I -8,1 C -6,5 C 0,3 km/h (0 Bft)
25.02.2011 22:00 -4,6 C 1,8 C -5,4 C -5,6 C -7,6 C 0,0 C 76 % 80 % 0 % 1028,6 hPa 0,0 l/m 0,4 km/h (0 Bft) SW 0,00 h 0,0 UV-I -8,2 C -7,6 C 0,3 km/h (0 Bft)
25.02.2011 23:00 -5,1 C 1,8 C -5,9 C -6,2 C -8,2 C 0,0 C 78 % 82 % 0 % 1028,6 hPa 0,0 l/m 0,2 km/h (0 Bft) N 0,00 h 0,0 UV-I -8,4 C -8,2 C 0,3 km/h (0 Bft)
26.02.2011 00:00 -5,6 C 2,0 C -6,5 C -6,6 C -8,6 C 0,0 C 79 % 83 % 0 % 1028,6 hPa 0,0 l/m 0,3 km/h (0 Bft) N 0,00 h 0,0 UV-I -8,6 C -8,6 C 0,3 km/h (0 Bft)
26.02.2011 01:00 -6,3 C 2,2 C -7,1 C -7,3 C -9,4 C 0,0 C 80 % 83 % 0 % 1028,0 hPa 0,0 l/m 0,0 km/h (0 Bft) N 0,00 h 0,0 UV-I -9,2 C -9,4 C 0,0 km/h (0 Bft)
26.02.2011 02:00 -6,8 C 2,2 C -7,6 C -7,8 C -9,8 C 0,0 C 81 % 85 % 0 % 1027,4 hPa 0,0 l/m 0,1 km/h (0 Bft) N 0,00 h 0,0 UV-I -9,5 C -9,8 C 0,1 km/h (0 Bft)
26.02.2011 03:00 -7,4 C 2,2 C -8,2 C -8,5 C -10,7 C 0,0 C 81 % 85 % 0 % 1026,9 hPa 0,0 l/m 0,0 km/h (0 Bft) N 0,00 h 0,0 UV-I -10,1 C -10,7 C 0,0 km/h (0 Bft)
26.02.2011 04:00 -7,9 C 2,2 C -8,6 C -8,9 C -11,1 C 0,0 C 82 % 86 % 0 % 1025,9 hPa 0,0 l/m 0,1 km/h (0 Bft) N 0,00 h 0,0 UV-I -10,4 C -11,1 C 0,2 km/h (0 Bft)
26.02.2011 05:00 -8,3 C 2,2 C -9,0 C -9,5 C -11,8 C 0,0 C 82 % 86 % 0 % 1025,5 hPa 0,0 l/m 0,1 km/h (0 Bft) N 0,00 h 0,0 UV-I -10,8 C -11,8 C 0,2 km/h (0 Bft)
26.02.2011 06:00 -8,4 C 2,2 C -9,2 C -9,5 C -11,7 C 0,0 C 82 % 86 % 0 % 1024,8 hPa 0,0 l/m 0,1 km/h (0 Bft) N 0,00 h 0,0 UV-I -10,9 C -11,7 C 0,0 km/h (0 Bft)
26.02.2011 07:00 -8,5 C 2,2 C -9,2 C -9,4 C -11,2 C 0,0 C 82 % 86 % 0 % 1024,3 hPa 0,0 l/m 0,1 km/h (0 Bft) N 0,00 h 0,0 UV-I -11,0 C -11,2 C 0,2 km/h (0 Bft)
26.02.2011 08:00 -6,7 C 2,2 C -6,1 C -6,5 C -6,7 C 0,2 C 81 % 83 % 6 % 1023,6 hPa 0,0 l/m 0,3 km/h (0 Bft) N 0,00 h 0,0 UV-I -9,4 C -6,7 C 0,3 km/h (0 Bft)
26.02.2011 09:00 -3,5 C 2,2 C -3,3 C -3,1 C -3,1 C 0,4 C 74 % 77 % 10 % 1022,8 hPa 0,0 l/m 1,0 km/h (0 Bft) W-SW 0,00 h 0,1 UV-I -7,4 C -3,1 C 1,4 km/h (1 Bft)
26.02.2011 10:00 -0,2 C 2,2 C -0,5 C 3,7 C 3,7 C 3,9 C 66 % 69 % 95 % 1022,0 hPa 0,0 l/m 2,2 km/h (1 Bft) SW 0,92 h 0,2 UV-I -5,8 C 3,7 C 3,2 km/h (1 Bft)
26.02.2011 11:00 1,8 C 2,2 C 1,3 C 9,1 C 9,1 C 7,3 C 57 % 61 % 100 % 1020,2 hPa 0,0 l/m 1,8 km/h (1 Bft) N-NO 1,00 h 0,6 UV-I -5,7 C 9,1 C 1,0 km/h (0 Bft)
26.02.2011 12:00 2,7 C 2,2 C 2,5 C 13,6 C 13,6 C 10,8 C 53 % 56 % 100 % 1019,1 hPa 0,0 l/m 1,4 km/h (1 Bft) W-SW 1,00 h 0,8 UV-I -6,0 C 13,6 C 2,0 km/h (1 Bft)
26.02.2011 13:00 4,1 C 2,2 C 4,0 C 14,8 C 14,8 C 10,7 C 47 % 48 % 100 % 1017,8 hPa 0,0 l/m 3,0 km/h (1 Bft) W-SW 1,00 h 0,7 UV-I -6,1 C 14,8 C 3,9 km/h (1 Bft)
26.02.2011 14:00 5,1 C 1,2 C 7,1 C 15,5 C 15,5 C 10,5 C 48 % 45 % 100 % 1016,8 hPa 0,0 l/m 3,1 km/h (1 Bft) SO 1,00 h 0,5 UV-I -5,0 C 15,5 C 3,9 km/h (1 Bft)
26.02.2011 15:00 5,6 C 1,0 C 10,1 C 15,8 C 15,8 C 10,2 C 52 % 42 % 100 % 1016,6 hPa 0,0 l/m 2,1 km/h (1 Bft) SO 1,00 h 0,2 UV-I -3,6 C 15,8 C 2,4 km/h (1 Bft)
26.02.2011 16:00 5,7 C 1,1 C 5,8 C 13,7 C 13,7 C 8,0 C 55 % 54 % 100 % 1016,0 hPa 0,0 l/m 2,1 km/h (1 Bft) SW 1,00 h 0,1 UV-I -2,7 C 13,7 C 2,5 km/h (1 Bft)
26.02.2011 17:00 4,4 C 1,1 C 4,0 C 7,3 C 7,3 C 3,0 C 58 % 61 % 52 % 1015,5 hPa 0,0 l/m 2,1 km/h (1 Bft) SW 0,58 h 0,0 UV-I -3,1 C 7,3 C 2,5 km/h (1 Bft)
26.02.2011 18:00 2,5 C 1,1 C 2,0 C 1,9 C 0,7 C 0,0 C 62 % 65 % 0 % 1014,9 hPa 0,0 l/m 2,5 km/h (1 Bft) W-SW 0,00 h 0,0 UV-I -4,0 C 0,7 C 3,0 km/h (1 Bft)
26.02.2011 19:00 1,2 C 1,2 C 0,5 C 0,6 C -0,6 C 0,0 C 65 % 68 % 0 % 1014,7 hPa 0,0 l/m 0,7 km/h (0 Bft) O 0,00 h 0,0 UV-I -4,7 C -0,6 C 1,3 km/h (1 Bft)
26.02.2011 20:00 0,5 C 1,3 C 0,1 C 0,1 C -0,8 C 0,0 C 66 % 70 % 0 % 1014,4 hPa 0,0 l/m 1,5 km/h (1 Bft) N-NO 0,00 h 0,0 UV-I -5,0 C -0,8 C 1,5 km/h (1 Bft)
26.02.2011 21:00 -0,2 C 1,3 C -0,6 C -0,7 C -1,7 C 0,0 C 68 % 72 % 0 % 1013,7 hPa 0,0 l/m 0,9 km/h (0 Bft) N-NO 0,00 h 0,0 UV-I -5,3 C -1,7 C 1,4 km/h (1 Bft)
26.02.2011 22:00 -0,5 C 1,3 C -0,7 C -0,9 C -1,7 C 0,0 C 71 % 74 % 0 % 1013,3 hPa 0,0 l/m 1,4 km/h (1 Bft) N-NO 0,00 h 0,0 UV-I -5,2 C -1,7 C 1,8 km/h (1 Bft)
26.02.2011 23:00 -0,9 C 1,4 C -1,1 C -1,3 C -2,1 C 0,0 C 73 % 75 % 0 % 1012,9 hPa 0,0 l/m 1,3 km/h (1 Bft) N-NO 0,00 h 0,0 UV-I -5,2 C -2,1 C 1,8 km/h (1 Bft)
27.02.2011 00:00 -1,5 C 1,6 C -2,1 C -2,2 C -3,7 C 0,0 C 75 % 77 % 0 % 1012,4 hPa 0,0 l/m 0,0 km/h (0 Bft) N 0,00 h 0,0 UV-I -5,4 C -3,7 C 0,0 km/h (0 Bft)
27.02.2011 01:00 -2,3 C 1,8 C -3,0 C -3,1 C -4,7 C 0,0 C 77 % 81 % 0 % 1012,1 hPa 0,0 l/m 0,0 km/h (0 Bft) N 0,00 h 0,0 UV-I -5,7 C -4,7 C 0,0 km/h (0 Bft)
27.02.2011 02:00 -2,8 C 2,0 C -3,5 C -3,6 C -5,3 C 0,0 C 80 % 83 % 0 % 1011,5 hPa 0,0 l/m 0,0 km/h (0 Bft) N 0,00 h 0,0 UV-I -5,8 C -5,3 C 0,0 km/h (0 Bft)
27.02.2011 03:00 -3,0 C 2,0 C -3,9 C -3,7 C -5,3 C 0,0 C 81 % 84 % 0 % 1010,7 hPa 0,0 l/m 0,0 km/h (0 Bft) N 0,00 h 0,0 UV-I -5,8 C -5,3 C 0,0 km/h (0 Bft)
27.02.2011 04:00 -3,3 C 2,1 C -4,2 C -4,0 C -5,6 C 0,0 C 82 % 85 % 0 % 1010,6 hPa 0,0 l/m 0,0 km/h (0 Bft) N 0,00 h 0,0 UV-I -6,0 C -5,6 C 0,0 km/h (0 Bft)
27.02.2011 05:00 -3,5 C 2,1 C -4,2 C -4,2 C -5,6 C 0,0 C 83 % 86 % 0 % 1010,5 hPa 0,0 l/m 0,0 km/h (0 Bft) N 0,00 h 0,0 UV-I -6,0 C -5,6 C 0,0 km/h (0 Bft)
27.02.2011 06:00 -3,3 C 2,1 C -3,9 C -3,8 C -4,9 C 0,0 C 83 % 86 % 0 % 1010,5 hPa 0,0 l/m 0,0 km/h (0 Bft) N 0,00 h 0,0 UV-I -5,8 C -4,9 C 0,0 km/h (0 Bft)
27.02.2011 07:00 -2,9 C 2,0 C -3,5 C -3,4 C -4,4 C 0,0 C 82 % 85 % 0 % 1010,8 hPa 0,0 l/m 0,1 km/h (0 Bft) N 0,00 h 0,0 UV-I -5,5 C -4,4 C 0,6 km/h (0 Bft)
27.02.2011 08:00 -1,3 C 1,8 C -1,0 C -0,2 C -0,2 C 1,1 C 80 % 81 % 29 % 1010,8 hPa 0,0 l/m 0,4 km/h (0 Bft) N 0,00 h 0,0 UV-I -4,3 C -0,2 C 1,0 km/h (0 Bft)
27.02.2011 09:00 0,5 C 1,6 C 0,7 C 2,1 C 2,1 C 1,7 C 76 % 77 % 44 % 1011,3 hPa 0,0 l/m 0,6 km/h (0 Bft) N-NO 0,00 h 0,1 UV-I -3,3 C 2,1 C 1,3 km/h (1 Bft)
27.02.2011 10:00 2,2 C 1,6 C 2,2 C 4,5 C 4,5 C 2,3 C 71 % 73 % 61 % 1011,6 hPa 0,0 l/m 0,7 km/h (0 Bft) NW 0,00 h 0,2 UV-I -2,5 C 4,5 C 0,9 km/h (0 Bft)
27.02.2011 11:00 2,9 C 1,6 C 3,0 C 4,8 C 4,8 C 1,9 C 72 % 73 % 50 % 1011,8 hPa 0,0 l/m 2,0 km/h (1 Bft) N-NO 0,00 h 0,2 UV-I -1,7 C 4,8 C 3,7 km/h (1 Bft)
27.02.2011 12:00 4,1 C 1,7 C 4,1 C 6,1 C 6,1 C 1,9 C 76 % 77 % 51 % 1011,5 hPa 0,0 l/m 2,9 km/h (1 Bft) N-NO 0,00 h 0,5 UV-I 0,2 C 6,1 C 3,6 km/h (1 Bft)
27.02.2011 13:00 4,8 C 1,7 C 4,8 C 6,5 C 6,5 C 1,6 C 75 % 76 % 43 % 1011,9 hPa 0,0 l/m 3,1 km/h (1 Bft) NO 0,08 h 0,2 UV-I 0,8 C 6,5 C 4,6 km/h (1 Bft)
27.02.2011 14:00 4,8 C 1,8 C 4,6 C 6,2 C 6,2 C 1,5 C 77 % 78 % 39 % 1011,9 hPa 0,0 l/m 1,2 km/h (1 Bft) N 0,00 h 0,2 UV-I 1,1 C 6,2 C 1,8 km/h (1 Bft)
27.02.2011 15:00 4,8 C 1,8 C 4,7 C 6,1 C 6,1 C 1,3 C 77 % 78 % 33 % 1012,4 hPa 0,0 l/m 2,9 km/h (1 Bft) NO 0,00 h 0,1 UV-I 1,1 C 6,1 C 3,9 km/h (1 Bft)
27.02.2011 16:00 4,8 C 1,8 C 4,7 C 6,0 C 6,0 C 1,1 C 78 % 79 % 30 % 1012,6 hPa 0,0 l/m 1,3 km/h (1 Bft) S-SO 0,00 h 0,1 UV-I 1,3 C 6,0 C 1,2 km/h (1 Bft)
27.02.2011 17:00 4,2 C 1,9 C 4,0 C 4,9 C 4,9 C 0,7 C 80 % 82 % 11 % 1013,0 hPa 0,0 l/m 1,8 km/h (1 Bft) NW 0,50 h 0,0 UV-I 1,2 C 4,9 C 2,4 km/h (1 Bft)
27.02.2011 18:00 3,9 C 2,0 C 3,9 C 4,0 C 4,0 C 0,1 C 83 % 84 % 0 % 1013,6 hPa 0,0 l/m 4,2 km/h (1 Bft) N-NO 0,00 h 0,0 UV-I 1,2 C 3,9 C 6,1 km/h (2 Bft)
27.02.2011 19:00 3,8 C 2,1 C 3,7 C 3,9 C 3,9 C 0,1 C 83 % 85 % 0 % 1014,6 hPa 0,0 l/m 3,7 km/h (1 Bft) N-NO 0,00 h 0,0 UV-I 1,2 C 3,7 C 4,4 km/h (1 Bft)
27.02.2011 20:00 3,6 C 2,2 C 3,4 C 4,0 C 4,0 C 0,4 C 84 % 85 % 0 % 1015,5 hPa 0,0 l/m 2,2 km/h (1 Bft) NW 0,00 h 0,0 UV-I 1,1 C 4,0 C 2,2 km/h (1 Bft)
27.02.2011 21:00 3,3 C 2,3 C 2,7 C 3,4 C 3,4 C 0,1 C 85 % 86 % 0 % 1016,1 hPa 0,0 l/m 0,8 km/h (0 Bft) N-NW 0,00 h 0,0 UV-I 0,9 C 3,4 C 0,9 km/h (0 Bft)
27.02.2011 22:00 3,1 C 2,4 C 2,6 C 3,1 C 3,0 C 0,1 C 85 % 87 % 0 % 1016,5 hPa 0,0 l/m 1,1 km/h (1 Bft) N-NW 0,00 h 0,0 UV-I 0,8 C 3,0 C 1,4 km/h (1 Bft)
27.02.2011 23:00 2,0 C 2,5 C 1,0 C 1,4 C 0,2 C 0,0 C 86 % 88 % 0 % 1017,3 hPa 0,0 l/m 0,1 km/h (0 Bft) N 0,00 h 0,0 UV-I -0,2 C 0,2 C 0,1 km/h (0 Bft)
Min-Datum _ 23.02.11 24.02.11 23.02.11 21.02.11 21.02.11 21.02.11 24.02.11 24.02.11 21.02.11 27.02.11 - 21.02.11 - - 21.02.11 23.02.11 21.02.11 21.02.11
_ Min-Zeit 06:35 10:50 07:20 05:25 03:20 00:00 14:15 14:50 00:00 04:35 - 00:40 - - 00:00 06:35 03:20 00:20
Minimum _ -15,3 C 0,4 C -16,1 C -11,7 C -13,8 C 0,0 C 41 % 37 % 0 % 1010,4 hPa - 0,0 km/h (0 Bft) - - 0,0 UV-I -18,4 C -13,8 C 0,0 km/h (0 Bft)
Max-Datum _ 26.02.11 21.02.11 26.02.11 26.02.11 26.02.11 26.02.11 27.02.11 27.02.11 22.02.11 25.02.11 24.02.11 21.02.11 - 26.02.11 26.02.11 27.02.11 26.02.11 21.02.11
_ Max-Zeit 15:55 00:00 15:09 14:50 14:50 12:55 23:20 23:45 07:20 11:35 12:09 15:25 - 11:38 12:35 16:00 14:50 16:09
Maximum _ 5,9 C 3,6 C 11,1 C 16,6 C 16,6 C 11,8 C 86 % 89 % 100 % 1029,8 hPa 0,7 l/m 9,8 km/h
SW (2 Bft)
- 0,47 h 0,9 UV-I 1,4 C 16,6 C 17,2 km/h
W-SW (3 Bft)
Durchschnitt _ -5,1 C 2,3 C -5,4 C -3,9 C -4,9 C 1,7 C 73 % 76 % 15 % 1021,7 hPa #2,1 l/m 0,7 km/h (0 Bft) W-SW #20:30 h 0,3 UV-I -9,4 C -5,0 C 0,9 km/h (0 Bft)
2013 www.wetterstation-wechselburg.de